Time;durP1;ratioP1;P1;durP2;ratioP2;P2;SDS_P1;SDS_P2;PMS_P1;PMS_P2;Temp;Humidity;BMP_temperature;BMP_pressure;BME280_temperature;BME280_humidity;BME280_pressure;Samples;Min_cycle;Max_cycle;Signal;HPM_P1;HPM_P2
2021/09/14 00:00:24;;;;;;;0.60;0.30;;;;;;;11.09;100.00;101335.50;4970721;28;20043;-82
2021/09/14 00:02:57;;;;;;;0.30;0.30;;;;;;;11.04;100.00;101328.13;4987725;28;20054;-82
2021/09/14 00:05:30;;;;;;;0.30;0.30;;;;;;;11.08;100.00;101328.44;4973160;28;20055;-82
2021/09/14 00:07:58;;;;;;;0.52;0.30;;;;;;;11.14;100.00;101339.06;4974165;28;20503;-82
2021/09/14 00:10:33;;;;;;;0.35;0.30;;;;;;;11.17;100.00;101338.53;4972470;28;20061;-82
2021/09/14 00:13:01;;;;;;;0.60;0.38;;;;;;;11.19;100.00;101339.09;4971927;28;20066;-82
2021/09/14 00:15:35;;;;;;;0.30;0.30;;;;;;;11.22;100.00;101343.19;4973852;28;20050;-82
2021/09/14 00:18:04;;;;;;;0.30;0.30;;;;;;;11.17;100.00;101334.97;4970207;28;20051;-82
2021/09/14 00:20:32;;;;;;;0.38;0.30;;;;;;;11.19;100.00;101332.81;4968949;28;20480;-82
2021/09/14 00:23:02;;;;;;;0.60;0.35;;;;;;;11.16;100.00;101327.91;4972221;28;20057;-82
2021/09/14 00:25:38;;;;;;;0.45;0.40;;;;;;;11.18;100.00;101336.63;4970719;28;20059;-82
2021/09/14 00:28:07;;;;;;;0.55;0.28;;;;;;;11.15;100.00;101335.25;4973846;28;20050;-82
2021/09/14 00:30:40;;;;;;;0.47;0.40;;;;;;;11.12;100.00;101335.00;4972631;28;20047;-82
2021/09/14 00:33:15;;;;;;;0.40;0.30;;;;;;;11.09;100.00;101332.78;4966135;28;20051;-82
2021/09/14 00:35:48;;;;;;;0.50;0.40;;;;;;;11.04;100.00;101334.41;4969821;28;20602;-82
2021/09/14 00:38:22;;;;;;;0.30;0.30;;;;;;;11.03;100.00;101326.50;4974132;28;20475;-82
2021/09/14 00:40:56;;;;;;;0.40;0.30;;;;;;;10.97;100.00;101320.22;4972187;28;20387;-82
2021/09/14 00:43:29;;;;;;;0.50;0.40;;;;;;;10.97;100.00;101325.66;4968219;28;20053;-82
2021/09/14 00:45:58;;;;;;;0.68;0.32;;;;;;;10.95;100.00;101332.44;4971243;28;20066;-82
2021/09/14 00:48:26;;;;;;;0.50;0.32;;;;;;;10.89;100.00;101329.69;4965959;28;20423;-81
2021/09/14 00:50:59;;;;;;;0.98;0.40;;;;;;;10.91;100.00;101324.00;4968746;28;20051;-82
2021/09/14 00:53:34;;;;;;;0.20;0.20;;;;;;;10.93;100.00;101326.47;4973170;28;20047;-82
2021/09/14 00:56:09;;;;;;;0.50;0.30;;;;;;;10.88;100.00;101319.09;4971324;28;20055;-82
2021/09/14 00:58:42;;;;;;;0.85;0.50;;;;;;;10.91;100.00;101324.00;4973686;28;20046;-82
2021/09/14 01:01:16;;;;;;;1.27;0.35;;;;;;;10.87;100.00;101314.75;4964867;28;20392;-81
2021/09/14 01:03:50;;;;;;;0.30;0.30;;;;;;;10.81;100.00;101319.34;4972531;28;20551;-82
2021/09/14 01:06:23;;;;;;;0.55;0.40;;;;;;;10.83;100.00;101319.09;4972944;28;20054;-82
2021/09/14 01:08:56;;;;;;;0.95;0.35;;;;;;;10.76;100.00;101308.44;4970695;28;20854;-82
2021/09/14 01:11:26;;;;;;;0.35;0.30;;;;;;;10.74;100.00;101320.66;4969789;28;20058;-83
2021/09/14 01:14:05;;;;;;;0.43;0.30;;;;;;;10.70;100.00;101323.91;4971147;28;20054;-83
2021/09/14 01:16:41;;;;;;;0.25;0.25;;;;;;;10.68;100.00;101322.53;4967762;28;20057;-82
2021/09/14 01:19:14;;;;;;;0.20;0.20;;;;;;;10.68;100.00;101317.91;4973414;28;20042;-82
2021/09/14 01:21:47;;;;;;;0.38;0.30;;;;;;;10.64;100.00;101322.25;4970850;28;20046;-82
2021/09/14 01:24:22;;;;;;;0.65;0.30;;;;;;;10.62;100.00;101321.69;4971590;28;20055;-82
2021/09/14 01:27:01;;;;;;;0.52;0.30;;;;;;;10.57;100.00;101321.66;4967698;28;20059;-82
2021/09/14 01:32:31;;;;;;;0.35;0.30;;;;;;;10.50;100.00;101318.38;4957246;28;20048;-81
2021/09/14 01:35:07;;;;;;;0.20;0.20;;;;;;;10.51;100.00;101323.53;4968132;28;20055;-82
2021/09/14 01:37:45;;;;;;;0.50;0.40;;;;;;;10.54;100.00;101323.00;4970653;28;20070;-82
2021/09/14 01:40:20;;;;;;;0.35;0.30;;;;;;;10.58;100.00;101326.03;4971165;28;20047;-81
2021/09/14 01:42:53;;;;;;;0.63;0.30;;;;;;;10.59;100.00;101322.22;4971021;28;20051;-82
2021/09/14 01:45:27;;;;;;;0.30;0.30;;;;;;;10.59;100.00;101332.28;4987322;28;20054;-81
2021/09/14 01:47:55;;;;;;;0.68;0.40;;;;;;;10.61;100.00;101330.13;4971018;28;20059;-82
2021/09/14 01:50:29;;;;;;;0.30;0.30;;;;;;;10.63;100.00;101327.94;4966724;28;20050;-82
2021/09/14 01:53:03;;;;;;;0.32;0.32;;;;;;;10.59;100.00;101319.50;4970555;28;20051;-82
2021/09/14 01:55:35;;;;;;;0.30;0.30;;;;;;;10.63;100.00;101319.78;4969873;28;20046;-82
2021/09/14 01:58:09;;;;;;;1.10;0.40;;;;;;;10.69;100.00;101332.34;4970987;28;20054;-82
2021/09/14 02:00:49;;;;;;;0.43;0.40;;;;;;;10.68;100.00;101322.53;4965728;28;20059;-81
2021/09/14 02:03:34;;;;;;;0.30;0.30;;;;;;;10.71;100.00;101328.25;4984857;28;20059;-82
2021/09/14 02:40:25;;;;;;;0.20;0.20;;;;;;;11.17;100.00;101313.19;4983470;28;20491;-82
2021/09/14 02:43:09;;;;;;;0.20;0.20;;;;;;;11.20;100.00;101315.41;4965571;28;20070;-82
2021/09/14 02:59:52;;;;;;;0.52;0.32;;;;;;;11.37;100.00;101304.25;4968045;28;20062;-82
2021/09/14 03:02:26;;;;;;;0.35;0.35;;;;;;;11.42;100.00;101311.63;4970557;28;20042;-82
2021/09/14 03:05:00;;;;;;;0.45;0.30;;;;;;;11.39;100.00;101313.81;4970036;28;20050;-82
2021/09/14 03:07:33;;;;;;;0.47;0.30;;;;;;;11.36;100.00;101308.88;4973998;28;20055;-82
2021/09/14 03:10:03;;;;;;;0.63;0.30;;;;;;;11.35;100.00;101318.16;4969815;28;20061;-82
2021/09/14 03:12:31;;;;;;;0.60;0.40;;;;;;;11.36;100.00;101308.88;4970097;28;20484;-82
2021/09/14 03:15:05;;;;;;;0.30;0.30;;;;;;;11.36;100.00;101303.41;4967479;28;20052;-82
2021/09/14 03:17:41;;;;;;;0.50;0.30;;;;;;;11.36;100.00;101310.78;4964548;28;20066;-82
2021/09/14 03:20:15;;;;;;;0.22;0.22;;;;;;;11.35;100.00;101304.53;4972393;28;20050;-83
2021/09/14 03:22:48;;;;;;;0.30;0.30;;;;;;;11.37;100.00;101298.81;4973535;28;20055;-82
2021/09/14 03:25:22;;;;;;;0.90;0.38;;;;;;;11.36;100.00;101299.88;4973624;28;20061;-83
2021/09/14 03:27:56;;;;;;;1.13;0.30;;;;;;;11.38;100.00;101306.72;4973961;28;20078;-82
2021/09/14 03:30:29;;;;;;;0.35;0.35;;;;;;;11.39;100.00;101302.91;4973430;28;20049;-82
2021/09/14 03:33:04;;;;;;;0.60;0.40;;;;;;;11.43;100.00;101295.00;4975092;28;20054;-83
2021/09/14 03:35:39;;;;;;;0.30;0.30;;;;;;;11.47;100.00;101293.34;4973484;28;20503;-82
2021/09/14 03:38:07;;;;;;;0.30;0.30;;;;;;;11.45;100.00;101281.09;4974278;28;20055;-82
2021/09/14 03:40:42;;;;;;;0.30;0.30;;;;;;;11.52;100.00;101295.28;4974741;28;20042;-82
2021/09/14 03:43:17;;;;;;;0.30;0.30;;;;;;;11.55;100.00;101297.47;4974946;28;20050;-82
2021/09/14 03:45:51;;;;;;;0.77;0.40;;;;;;;11.57;100.00;101292.53;4970946;28;20055;-82
2021/09/14 03:48:29;;;;;;;0.50;0.30;;;;;;;11.52;100.00;101298.81;4975947;28;20057;-82
2021/09/14 03:50:58;;;;;;;0.80;0.40;;;;;;;11.54;100.00;101304.00;4973483;28;20139;-81
2021/09/14 03:53:26;;;;;;;0.70;0.30;;;;;;;11.54;100.00;101293.09;4967577;28;20053;-82
2021/09/14 03:55:55;;;;;;;1.23;0.40;;;;;;;11.59;100.00;101293.09;4968375;28;20051;-82
2021/09/14 03:58:29;;;;;;;0.20;0.20;;;;;;;11.57;100.00;101293.38;4972983;28;20488;-82
2021/09/14 04:01:03;;;;;;;0.80;0.32;;;;;;;11.55;100.00;101294.75;4973434;28;20503;-83
2021/09/14 04:03:43;;;;;;;0.30;0.30;;;;;;;11.50;100.00;101295.56;4973325;28;20054;-82
2021/09/14 04:09:02;;;;;;;0.20;0.20;;;;;;;11.42;100.00;101296.09;4973916;28;20051;-81
2021/09/14 04:11:57;;;;;;;0.20;0.20;;;;;;;11.42;100.00;101293.38;4973311;28;20059;-82
2021/09/14 04:14:32;;;;;;;0.47;0.30;;;;;;;11.40;100.00;101299.06;4969867;28;20039;-82
2021/09/14 04:17:06;;;;;;;0.47;0.30;;;;;;;11.48;100.00;101289.56;4970048;28;20504;-82
2021/09/14 04:19:36;;;;;;;0.60;0.40;;;;;;;11.60;100.00;101285.75;4972993;28;20492;-82
2021/09/14 04:22:06;;;;;;;0.30;0.30;;;;;;;11.64;100.00;101295.00;4971249;28;20054;-82
2021/09/14 04:24:39;;;;;;;0.40;0.35;;;;;;;11.51;100.00;101290.91;4971477;28;20047;-83
2021/09/14 04:27:14;;;;;;;0.30;0.30;;;;;;;11.48;100.00;101291.47;4972950;28;20376;-82
2021/09/14 04:29:47;;;;;;;0.30;0.30;;;;;;;11.47;100.00;101295.28;4972889;28;20055;-81
2021/09/14 04:32:16;;;;;;;0.30;0.30;;;;;;;11.47;100.00;101300.72;4985128;28;20058;-82
2021/09/14 04:34:53;;;;;;;0.73;0.30;;;;;;;11.50;100.00;101300.19;4971148;28;20042;-82
2021/09/14 04:37:27;;;;;;;0.30;0.30;;;;;;;11.46;100.00;101293.63;4963348;28;20051;-82
2021/09/14 04:40:00;;;;;;;0.30;0.30;;;;;;;11.50;100.00;101305.63;4972450;28;20038;-82
2021/09/14 04:42:34;;;;;;;0.70;0.50;;;;;;;11.50;100.00;101308.34;4972421;28;20042;-83
2021/09/14 04:45:04;;;;;;;0.20;0.20;;;;;;;11.47;100.00;101301.53;4972553;28;20061;-83
2021/09/14 04:47:34;;;;;;;0.30;0.30;;;;;;;11.50;100.00;101292.00;4970320;28;20053;-82
2021/09/14 04:50:12;;;;;;;0.55;0.30;;;;;;;11.54;100.00;101301.28;4972072;28;20050;-82
2021/09/14 04:52:46;;;;;;;0.30;0.28;;;;;;;11.57;100.00;101303.44;4972380;28;20051;-83
2021/09/14 04:55:14;;;;;;;0.40;0.40;;;;;;;11.56;100.00;101302.66;4972784;28;20170;-82
2021/09/14 04:57:47;;;;;;;0.50;0.40;;;;;;;11.53;100.00;101294.19;4971686;28;20058;-82
2021/09/14 05:00:20;;;;;;;0.35;0.30;;;;;;;11.58;100.00;101296.91;4971177;28;20048;-82
2021/09/14 05:02:54;;;;;;;0.30;0.30;;;;;;;11.60;100.00;101288.47;4969147;28;20522;-83
2021/09/14 05:05:29;;;;;;;0.20;0.20;;;;;;;11.64;100.00;101289.56;4972108;28;20062;-82
2021/09/14 05:08:03;;;;;;;0.30;0.30;;;;;;;11.63;100.00;101282.47;4972270;28;20062;-83
2021/09/14 05:10:38;;;;;;;0.65;0.30;;;;;;;11.66;100.00;101287.41;4971477;28;20062;-82
2021/09/14 05:13:12;;;;;;;2.90;0.50;;;;;;;11.70;100.00;101286.56;4968621;28;20384;-82
2021/09/14 05:15:45;;;;;;;0.30;0.30;;;;;;;11.70;100.00;101288.47;4985116;28;20488;-82
2021/09/14 05:18:38;;;;;;;0.77;0.40;;;;;;;11.69;100.00;101281.38;4945856;28;20062;-82
2021/09/14 05:21:14;;;;;;;0.43;0.40;;;;;;;11.73;100.00;101291.47;4969644;28;20059;-82
2021/09/14 05:23:42;;;;;;;0.57;0.38;;;;;;;11.74;100.00;101284.94;4971137;28;20051;-82
2021/09/14 05:26:15;;;;;;;0.63;0.40;;;;;;;11.75;100.00;101288.47;4971925;28;20054;-82
2021/09/14 05:28:48;;;;;;;0.30;0.30;;;;;;;11.78;100.00;101293.41;4971979;28;20054;-82
2021/09/14 05:31:17;;;;;;;0.30;0.30;;;;;;;11.81;100.00;101290.13;4971626;28;20058;-82
2021/09/14 05:33:50;;;;;;;0.95;0.40;;;;;;;11.75;100.00;101277.56;4968494;28;20403;-82
2021/09/14 05:36:24;;;;;;;0.75;0.35;;;;;;;11.90;100.00;101283.03;4968115;28;20058;-82
2021/09/14 05:38:53;;;;;;;0.65;0.40;;;;;;;11.88;100.00;101276.22;4970289;28;20538;-82
2021/09/14 05:41:26;;;;;;;0.30;0.30;;;;;;;11.91;100.00;101289.28;4968672;28;20050;-81
2021/09/14 05:44:01;;;;;;;0.60;0.32;;;;;;;11.91;100.00;101276.47;4970872;28;20054;-82
2021/09/14 05:46:35;;;;;;;0.57;0.40;;;;;;;11.96;100.00;101275.69;4969770;28;20047;-82
2021/09/14 05:49:08;;;;;;;0.75;0.50;;;;;;;12.01;100.00;101275.66;4971918;28;20422;-82
2021/09/14 05:51:43;;;;;;;0.30;0.30;;;;;;;12.05;100.00;101265.84;4967699;28;20477;-82
2021/09/14 05:54:16;;;;;;;0.30;0.30;;;;;;;12.06;100.00;101277.59;4971125;28;20046;-82
2021/09/14 05:56:49;;;;;;;0.52;0.40;;;;;;;12.00;100.00;101279.50;4966040;28;20058;-82
2021/09/14 05:59:24;;;;;;;0.47;0.40;;;;;;;11.98;100.00;101278.94;4967577;28;20074;-82
2021/09/14 06:01:57;;;;;;;0.50;0.40;;;;;;;12.14;100.00;101279.75;4970909;28;20083;-82
2021/09/14 06:04:33;;;;;;;0.52;0.43;;;;;;;12.38;100.00;101277.22;4969449;28;20403;-82
2021/09/14 06:07:08;;;;;;;0.30;0.30;;;;;;;12.40;100.00;101280.50;4967063;28;20058;-82
2021/09/14 06:09:41;;;;;;;0.43;0.30;;;;;;;12.27;100.00;101281.06;4970500;28;20047;-82
2021/09/14 06:12:15;;;;;;;0.50;0.32;;;;;;;12.33;100.00;101282.72;4972833;28;20419;-84
2021/09/14 06:14:44;;;;;;;0.35;0.30;;;;;;;12.37;100.00;101278.34;4965071;28;20063;-82
2021/09/14 06:17:17;;;;;;;0.55;0.30;;;;;;;12.32;100.00;101277.50;4968484;28;20499;-82
2021/09/14 06:19:50;;;;;;;1.75;0.40;;;;;;;12.33;100.00;101285.44;4969707;28;20495;-85
2021/09/14 06:22:25;;;;;;;0.52;0.43;;;;;;;12.31;100.00;101293.09;4969797;28;20055;-81
2021/09/14 06:24:58;;;;;;;0.30;0.30;;;;;;;12.25;100.00;101272.38;4959186;28;20411;-83
2021/09/14 06:27:34;;;;;;;0.40;0.40;;;;;;;12.49;100.00;101278.00;4969300;28;20053;-83
2021/09/14 06:30:04;;;;;;;0.30;0.30;;;;;;;12.52;100.00;101272.00;4970687;28;20066;-82
2021/09/14 06:32:38;;;;;;;0.68;0.40;;;;;;;12.48;100.00;101279.09;4962842;28;20491;-83
2021/09/14 06:35:07;;;;;;;0.75;0.50;;;;;;;12.50;100.00;101273.38;4963847;28;20043;-82
2021/09/14 06:37:45;;;;;;;;;;;;;;;12.61;100.00;101276.88;4975275;28;20058;-83
2021/09/14 06:40:18;;;;;;;0.65;0.30;;;;;;;12.74;100.00;101282.56;4955821;28;19930;-83
2021/09/14 06:42:53;;;;;;;0.50;0.40;;;;;;;12.87;100.00;101274.84;4953220;28;20047;-83
2021/09/14 06:45:46;;;;;;;0.47;0.40;;;;;;;13.22;100.00;101276.59;4960342;28;20396;-83
2021/09/14 06:48:26;;;;;;;0.88;0.45;;;;;;;13.10;100.00;101273.38;4946012;28;20065;-82
2021/09/14 06:50:55;;;;;;;1.13;0.50;;;;;;;13.17;100.00;101284.81;4950920;28;20070;-83
2021/09/14 06:53:30;;;;;;;0.40;0.40;;;;;;;13.45;100.00;101274.28;4945042;28;20058;-83
2021/09/14 06:56:03;;;;;;;0.63;0.40;;;;;;;13.31;100.00;101286.91;4950733;28;20054;-84
2021/09/14 06:58:39;;;;;;;2.25;0.50;;;;;;;13.25;100.00;101283.41;4949192;28;20055;-83
2021/09/14 07:01:18;;;;;;;0.50;0.50;;;;;;;13.51;100.00;101283.28;4949049;28;20062;-82
2021/09/14 07:03:52;;;;;;;0.60;0.40;;;;;;;13.47;100.00;101282.19;4959002;28;20467;-83
2021/09/14 07:06:21;;;;;;;0.60;0.50;;;;;;;13.36;100.00;101282.25;4947271;28;20090;-83
2021/09/14 07:08:55;;;;;;;0.82;0.40;;;;;;;13.55;100.00;101282.41;4947506;28;20054;-82
2021/09/14 07:11:29;;;;;;;0.50;0.45;;;;;;;13.75;100.00;101277.88;4943677;28;20055;-82
2021/09/14 07:13:58;;;;;;;0.32;0.30;;;;;;;13.73;100.00;101269.13;4950295;28;20063;-82
2021/09/14 07:16:31;;;;;;;0.73;0.73;;;;;;;13.70;100.00;101276.00;4942241;28;20057;-83
2021/09/14 07:19:05;;;;;;;1.15;0.68;;;;;;;13.66;100.00;101279.56;4945967;28;20055;-82
2021/09/14 07:21:38;;;;;;;0.40;0.40;;;;;;;13.85;100.00;101271.47;4941976;28;20078;-83
2021/09/14 07:24:12;;;;;;;0.52;0.40;;;;;;;13.78;100.00;101272.66;4944536;28;20059;-84
2021/09/14 07:26:41;;;;;;;0.40;0.40;;;;;;;13.81;100.00;101281.38;4944143;28;20052;-84
2021/09/14 07:29:14;;;;;;;0.90;0.32;;;;;;;13.86;100.00;101273.13;4943810;28;20059;-83
2021/09/14 07:31:44;;;;;;;0.52;0.40;;;;;;;13.90;100.00;101274.19;4946223;28;20500;-82
2021/09/14 07:34:17;;;;;;;1.10;0.47;;;;;;;13.98;100.00;101270.81;4949927;28;20043;-83
2021/09/14 07:36:50;;;;;;;0.50;0.40;;;;;;;14.06;100.00;101269.38;4944485;28;20062;-83
2021/09/14 07:39:25;;;;;;;1.13;0.40;;;;;;;14.10;100.00;101271.25;4945885;28;20055;-82
2021/09/14 07:41:58;;;;;;;0.55;0.40;;;;;;;14.17;100.00;101278.28;4944047;28;20066;-82
2021/09/14 07:44:33;;;;;;;0.52;0.40;;;;;;;14.24;100.00;101270.56;4946481;28;21472;-84
2021/09/14 07:47:06;;;;;;;0.75;0.50;;;;;;;14.36;99.32;101256.47;4946623;28;20047;-83
2021/09/14 07:49:39;;;;;;;0.30;0.30;;;;;;;14.37;100.00;101258.09;4944748;28;20054;-83
2021/09/14 07:52:13;;;;;;;0.63;0.40;;;;;;;14.45;97.88;101247.31;4948895;28;20047;-82
2021/09/14 07:54:42;;;;;;;0.60;0.38;;;;;;;14.36;99.23;101253.72;4945619;28;20492;-83
2021/09/14 07:57:16;;;;;;;0.90;0.50;;;;;;;14.23;99.19;101250.59;4948407;28;20059;-83
2021/09/14 07:59:49;;;;;;;0.55;0.40;;;;;;;14.31;100.00;101248.31;4952973;28;20059;-83
2021/09/14 08:02:22;;;;;;;0.65;0.45;;;;;;;14.31;100.00;101253.78;4984628;28;20050;-84
2021/09/14 08:04:55;;;;;;;0.57;0.35;;;;;;;14.24;99.77;101235.78;4986701;28;20114;-83
2021/09/14 08:07:28;;;;;;;0.57;0.40;;;;;;;14.38;100.00;101248.78;4960654;28;21255;-82
2021/09/14 08:09:58;;;;;;;0.70;0.50;;;;;;;14.43;99.80;101244.06;4938208;28;20070;-82
2021/09/14 08:12:32;;;;;;;0.45;0.40;;;;;;;14.44;100.00;101255.81;4872336;29;20045;-83
2021/09/14 08:15:07;;;;;;;1.00;0.40;;;;;;;14.44;100.00;101253.91;4763823;29;20045;-84
2021/09/14 08:17:40;;;;;;;0.85;0.30;;;;;;;14.40;100.00;101250.13;4624945;30;20050;-83
2021/09/14 08:25:23;;;;;;;0.52;0.40;;;;;;;14.74;97.95;101245.63;5169758;27;20123;-81
2021/09/14 08:27:57;;;;;;;0.85;0.47;;;;;;;14.73;96.80;101247.53;5120016;27;20070;-82
2021/09/14 08:30:29;;;;;;;0.30;0.30;;;;;;;14.72;97.24;101250.59;5090838;27;20055;-81
2021/09/14 08:33:00;;;;;;;0.90;0.30;;;;;;;14.78;97.73;101249.44;5042681;28;20045;-81
2021/09/14 08:35:27;;;;;;;0.50;0.50;;;;;;;14.81;97.31;101242.53;4964414;28;20062;-82
2021/09/14 08:37:55;;;;;;;0.40;0.40;;;;;;;14.82;98.75;101260.59;4812804;28;1232959;-83
2021/09/14 08:40:29;;;;;;;0.30;0.30;;;;;;;14.90;96.93;101251.72;4866341;29;20060;-84
2021/09/14 08:43:05;;;;;;;0.40;0.30;;;;;;;14.88;97.64;101253.94;4856179;29;20053;-84
2021/09/14 08:45:38;;;;;;;0.85;0.45;;;;;;;14.96;96.62;101251.34;4859147;29;20636;-84
2021/09/14 08:48:12;;;;;;;0.85;0.40;;;;;;;15.03;94.94;101244.69;4871330;29;20065;-82
2021/09/14 08:50:46;;;;;;;0.43;0.32;;;;;;;14.91;95.65;101236.91;4854272;29;20068;-82
2021/09/14 08:53:20;;;;;;;0.30;0.30;;;;;;;14.97;96.86;101246.72;4861190;29;20072;-83
2021/09/14 08:56:00;;;;;;;0.40;0.40;;;;;;;15.08;95.46;101244.59;4854148;29;21547;-82
2021/09/14 08:58:33;;;;;;;0.30;0.30;;;;;;;15.10;93.56;101250.63;4857613;29;20057;-82
2021/09/14 09:01:11;;;;;;;0.38;0.38;;;;;;;15.17;94.47;101250.25;4852520;29;20053;-83
2021/09/14 09:03:56;;;;;;;0.28;0.25;;;;;;;15.22;94.67;101256.47;4862693;29;20045;-80
2021/09/14 09:06:33;;;;;;;0.30;0.30;;;;;;;15.45;90.42;101242.94;4873168;29;20587;-82
2021/09/14 09:09:14;;;;;;;0.20;0.20;;;;;;;15.37;92.48;101251.84;4850777;29;20063;-81
2021/09/14 09:11:57;;;;;;;0.25;0.25;;;;;;;15.46;91.09;101245.38;4866883;29;20071;-82
2021/09/14 09:14:36;;;;;;;1.00;0.20;;;;;;;16.01;83.82;101248.63;4860210;29;20131;-80
2021/09/14 09:17:13;;;;;;;0.40;0.30;;;;;;;15.99;84.28;101246.16;4855697;29;20066;-82
2021/09/14 09:19:55;;;;;;;0.30;0.30;;;;;;;15.87;83.62;101243.94;4865248;29;20044;-81
2021/09/14 09:22:24;;;;;;;0.25;0.25;;;;;;;15.70;87.73;101258.19;4881876;29;20487;-80
2021/09/14 09:24:57;;;;;;;0.20;0.20;;;;;;;16.04;81.83;101245.28;4880874;29;20048;-82
2021/09/14 09:27:30;;;;;;;0.38;0.35;;;;;;;16.02;83.42;101240.09;4870324;29;20063;-82
2021/09/14 09:30:07;;;;;;;0.70;0.40;;;;;;;15.84;86.40;101232.72;4886222;29;20075;-80
2021/09/14 09:32:45;;;;;;;0.20;0.20;;;;;;;15.79;85.49;101239.09;4884690;29;20538;-83
2021/09/14 09:35:26;;;;;;;0.40;0.40;;;;;;;16.16;83.31;101234.63;4891279;29;20075;-82
2021/09/14 09:38:00;;;;;;;0.38;0.30;;;;;;;15.93;88.13;101248.19;4914676;28;20046;-82
2021/09/14 09:40:35;;;;;;;0.30;0.30;;;;;;;16.11;83.71;101232.75;4952655;28;20061;-82
2021/09/14 09:43:27;;;;;;;0.20;0.20;;;;;;;16.24;84.37;101233.06;4999825;28;20069;-82
2021/09/14 09:46:09;;;;;;;0.30;0.30;;;;;;;16.17;82.98;101235.41;5008618;28;20689;-84
2021/09/14 09:48:43;;;;;;;0.20;0.20;;;;;;;16.57;79.42;101239.28;5006641;28;20068;-83
2021/09/14 09:51:11;;;;;;;0.30;0.30;;;;;;;16.45;76.05;101220.56;5006379;28;20625;-81
2021/09/14 09:53:46;;;;;;;0.20;0.20;;;;;;;16.65;76.66;101235.81;5004851;28;20515;-81
2021/09/14 09:56:21;;;;;;;0.35;0.30;;;;;;;16.25;83.78;101227.28;5002132;28;20050;-83
2021/09/14 09:58:56;;;;;;;0.30;0.30;;;;;;;16.21;85.50;101234.50;4989309;28;20058;-82
2021/09/14 10:01:32;;;;;;;0.57;0.40;;;;;;;16.26;83.93;101233.59;4993871;28;20057;-83
2021/09/14 10:04:09;;;;;;;0.30;0.30;;;;;;;16.31;84.72;101231.56;5001003;28;20064;-82
2021/09/14 10:06:48;;;;;;;0.30;0.30;;;;;;;16.34;85.08;101227.41;5002960;28;20450;-82
2021/09/14 10:09:22;;;;;;;0.30;0.30;;;;;;;16.39;82.61;101219.06;5004311;28;20069;-85
2021/09/14 10:11:57;;;;;;;0.30;0.30;;;;;;;16.87;76.18;101233.44;5004169;28;20065;-82
2021/09/14 10:14:31;;;;;;;2.85;0.35;;;;;;;16.81;84.46;101233.53;4990659;28;20119;-82
2021/09/14 10:17:11;;;;;;;0.32;0.32;;;;;;;16.86;76.57;101216.13;5001661;28;20112;-83
2021/09/14 10:19:42;;;;;;;0.30;0.30;;;;;;;16.78;78.83;101227.88;5002879;28;20076;-81
2021/09/14 10:22:23;;;;;;;0.28;0.20;;;;;;;16.58;81.99;101224.41;4999438;28;20053;-81
2021/09/14 10:25:01;;;;;;;0.38;0.30;;;;;;;16.54;82.00;101214.34;5002777;28;20085;-83
2021/09/14 10:27:37;;;;;;;0.20;0.20;;;;;;;16.84;81.99;101216.44;5011149;28;20041;-82
2021/09/14 10:30:21;;;;;;;0.30;0.30;;;;;;;16.98;82.04;101219.16;5011128;28;20057;-81
2021/09/14 10:32:54;;;;;;;0.20;0.20;;;;;;;16.98;78.84;101210.91;4988665;28;20054;-84
2021/09/14 10:35:32;;;;;;;0.30;0.30;;;;;;;17.00;77.06;101213.38;5003452;28;21411;-84
2021/09/14 10:38:11;;;;;;;0.57;0.43;;;;;;;17.00;82.35;101218.88;4978429;28;20513;-84
2021/09/14 10:40:47;;;;;;;0.20;0.20;;;;;;;17.06;81.56;101211.31;4975135;28;20051;-84
2021/09/14 10:43:27;;;;;;;0.30;0.28;;;;;;;16.97;79.17;101217.56;4993566;28;20054;-81
2021/09/14 10:46:03;;;;;;;0.25;0.25;;;;;;;17.36;71.40;101209.78;4985036;28;20423;-81
2021/09/14 10:48:51;;;;;;;0.30;0.25;;;;;;;17.17;79.14;101210.75;4971659;28;20578;-83
2021/09/14 10:51:27;;;;;;;0.28;0.28;;;;;;;17.60;70.69;101209.44;4995211;28;20065;-81
2021/09/14 10:54:01;;;;;;;0.30;0.30;;;;;;;17.42;77.10;101210.47;4997041;28;20537;-82
2021/09/14 10:56:48;;;;;;;0.38;0.30;;;;;;;17.21;77.77;101199.94;4991821;28;20065;-81
2021/09/14 10:59:24;;;;;;;0.30;0.30;;;;;;;16.95;77.92;101199.75;4976631;28;21230;-80
2021/09/14 11:01:59;;;;;;;0.25;0.20;;;;;;;17.32;71.67;101200.53;4972505;28;20069;-81
2021/09/14 11:04:27;;;;;;;0.20;0.20;;;;;;;17.21;77.29;101199.94;4972003;28;20058;-79
2021/09/14 11:07:10;;;;;;;0.30;0.30;;;;;;;17.30;79.85;101200.84;4975904;28;20057;-83
2021/09/14 11:09:45;;;;;;;0.20;0.20;;;;;;;17.66;72.13;101199.94;4978391;28;20054;-82
2021/09/14 11:12:20;;;;;;;0.22;0.22;;;;;;;17.59;72.20;101199.53;4975264;28;20058;-81
2021/09/14 11:14:48;;;;;;;0.20;0.20;;;;;;;17.63;72.02;101188.72;4982302;28;20068;-82
2021/09/14 11:17:29;;;;;;;0.30;0.25;;;;;;;17.52;74.08;101182.66;4985056;28;20062;-85
2021/09/14 11:20:11;;;;;;;0.10;0.10;;;;;;;17.59;75.28;101176.72;4979152;28;20061;-81
2021/09/14 11:22:45;;;;;;;0.30;0.30;;;;;;;17.67;72.26;101179.50;4980873;28;20787;-82
2021/09/14 11:25:20;;;;;;;0.20;0.20;;;;;;;17.64;76.67;101187.59;4990937;28;20054;-81
2021/09/14 11:27:57;;;;;;;0.30;0.30;;;;;;;17.66;75.85;101188.09;4984910;28;20050;-81
2021/09/14 11:30:32;;;;;;;0.30;0.25;;;;;;;17.64;77.39;101193.91;4971592;28;20065;-83
2021/09/14 11:33:07;;;;;;;0.20;0.20;;;;;;;17.70;73.48;101183.56;4977233;28;20054;-79
2021/09/14 11:35:40;;;;;;;0.30;0.30;;;;;;;17.96;73.43;101180.97;4974693;28;20058;-83
2021/09/14 11:38:18;;;;;;;0.30;0.30;;;;;;;17.89;70.33;101180.59;4967099;28;20061;-81
2021/09/14 11:40:54;;;;;;;0.22;0.22;;;;;;;17.80;71.48;101174.22;4975359;28;20058;-80
2021/09/14 11:43:29;;;;;;;0.28;0.28;;;;;;;17.60;74.38;101175.59;5009339;28;20053;-83
2021/09/14 11:45:58;;;;;;;0.20;0.20;;;;;;;17.62;72.85;101163.16;4996273;28;20071;-80
2021/09/14 11:48:32;;;;;;;0.30;0.30;;;;;;;17.70;78.13;101180.81;5007981;28;20045;-80
2021/09/14 11:51:05;;;;;;;0.30;0.30;;;;;;;17.74;72.92;101167.25;5009746;28;20065;-80
2021/09/14 11:53:36;;;;;;;0.45;0.45;;;;;;;17.71;72.69;101152.19;5013676;28;20057;-80
2021/09/14 11:56:14;;;;;;;0.35;0.30;;;;;;;17.89;71.54;101160.53;4992684;28;20065;-85
2021/09/14 11:58:49;;;;;;;0.20;0.20;;;;;;;17.72;77.03;101155.72;4999552;28;20064;-81
2021/09/14 12:01:21;;;;;;;0.40;0.40;;;;;;;17.81;75.71;101159.34;5010222;28;20057;-82
2021/09/14 12:03:55;;;;;;;0.70;0.30;;;;;;;17.92;78.20;101155.19;5007994;28;20053;-82
2021/09/14 12:06:32;;;;;;;0.32;0.30;;;;;;;17.84;75.50;101158.69;4999485;28;20088;-85
2021/09/14 12:09:10;;;;;;;0.30;0.30;;;;;;;17.74;78.20;101159.00;5003440;28;20425;-82
2021/09/14 12:11:43;;;;;;;0.30;0.30;;;;;;;17.90;75.41;101143.69;5010931;28;20064;-87
2021/09/14 12:14:18;;;;;;;0.20;0.20;;;;;;;18.15;76.57;101150.44;5009340;28;20489;-86
2021/09/14 12:16:57;;;;;;;0.30;0.30;;;;;;;18.31;75.58;101150.81;5013574;28;20049;-86
2021/09/14 12:19:58;;;;;;;0.30;0.20;;;;;;;18.32;74.34;101157.13;5001641;28;20065;-87
2021/09/14 12:22:31;;;;;;;0.30;0.30;;;;;;;18.35;74.64;101146.28;4999933;28;20057;-82
2021/09/14 12:24:59;;;;;;;0.20;0.20;;;;;;;18.41;75.81;101135.06;4995128;28;20060;-88
2021/09/14 12:27:29;;;;;;;0.20;0.20;;;;;;;18.54;78.01;101136.88;5000185;28;20057;-81
2021/09/14 12:29:59;;;;;;;0.20;0.20;;;;;;;18.73;74.84;101144.03;5003235;28;20046;-80
2021/09/14 12:32:32;;;;;;;0.73;0.20;;;;;;;18.82;74.41;101148.44;5008668;28;20092;-80
2021/09/14 12:35:09;;;;;;;0.55;0.30;;;;;;;18.72;72.86;101137.69;5001754;28;20060;-78
2021/09/14 12:37:42;;;;;;;;;;;;;;;18.72;73.76;101150.69;5003449;28;20815;-79
2021/09/14 12:40:16;;;;;;;0.20;0.20;;;;;;;18.52;72.74;101148.22;4977549;28;20364;-80
2021/09/14 12:42:52;;;;;;;0.20;0.20;;;;;;;18.49;74.04;101135.09;4956526;28;20058;-79
2021/09/14 12:45:26;;;;;;;0.30;0.30;;;;;;;18.46;76.08;101140.44;4984373;28;20053;-81
2021/09/14 12:47:56;;;;;;;0.20;0.20;;;;;;;18.64;74.66;101141.25;4994921;28;20045;-79
2021/09/14 12:50:25;;;;;;;0.50;0.40;;;;;;;18.56;75.46;101134.63;4987514;28;21353;-80
2021/09/14 12:52:58;;;;;;;0.38;0.30;;;;;;;18.64;74.28;101128.31;5015482;28;20045;-84